createdAt,value
2019-06-07T00:01:05.518Z,23.37
2019-06-07T00:03:31.935Z,19.73
2019-06-07T00:05:58.057Z,17.40
2019-06-07T00:08:29.048Z,18.23
2019-06-07T00:10:53.529Z,17.60
2019-06-07T00:13:21.583Z,16.57
2019-06-07T00:15:47.703Z,18.77
2019-06-07T00:18:17.533Z,15.97
2019-06-07T00:20:41.856Z,16.87
2019-06-07T00:23:12.182Z,18.90
2019-06-07T00:25:37.524Z,19.43
2019-06-07T00:28:03.795Z,19.43
2019-06-07T00:30:41.086Z,21.03
2019-06-07T00:32:58.196Z,19.90
2019-06-07T00:35:24.450Z,18.97
2019-06-07T00:37:50.572Z,17.47
2019-06-07T00:40:27.109Z,16.80
2019-06-07T00:42:44.951Z,20.13
2019-06-07T00:45:17.912Z,18.93
2019-06-07T00:47:40.314Z,16.20
2019-06-07T00:50:08.772Z,18.83
2019-06-07T00:55:05.344Z,19.43
2019-06-07T00:57:31.559Z,19.43
2019-06-07T00:59:57.723Z,16.07
2019-06-07T01:02:31.262Z,15.80
2019-06-07T01:04:55.289Z,18.60
2019-06-07T01:07:21.986Z,22.37
2019-06-07T01:09:49.551Z,20.63
2019-06-07T01:12:19.419Z,22.93
2019-06-07T01:14:44.236Z,20.83
2019-06-07T01:17:27.736Z,21.27
2019-06-07T01:19:41.714Z,23.10
2019-06-07T01:22:07.937Z,23.97
2019-06-07T01:24:34.177Z,22.93
2019-06-07T01:27:00.305Z,21.27
2019-06-07T01:29:29.464Z,21.63
2019-06-07T01:31:54.704Z,21.60
2019-06-07T01:34:21.757Z,20.27
2019-06-07T01:36:48.970Z,18.07
2019-06-07T01:39:16.369Z,19.73
2019-06-07T01:41:42.576Z,21.17
2019-06-07T01:44:08.747Z,24.17
2019-06-07T01:46:34.981Z,22.67
2019-06-07T01:49:01.196Z,21.67
2019-06-07T01:51:30.479Z,22.23
2019-06-07T01:54:40.728Z,21.77
2019-06-07T01:56:26.517Z,21.33
2019-06-07T01:58:51.635Z,20.20
2019-06-07T02:01:19.663Z,20.40
2019-06-07T02:03:45.795Z,20.87
2019-06-07T02:06:12.021Z,21.67
2019-06-07T02:08:38.269Z,21.33
2019-06-07T02:11:04.513Z,18.60
2019-06-07T02:13:30.880Z,19.87
2019-06-07T02:15:57.164Z,20.07
2019-06-07T02:18:25.495Z,20.07
2019-06-07T02:20:51.348Z,19.47
2019-06-07T02:23:17.471Z,21.77
2019-06-07T02:25:50.202Z,21.83
2019-06-07T02:28:27.570Z,20.43
2019-06-07T02:30:53.342Z,20.67
2019-06-07T02:33:08.040Z,20.37
2019-06-07T02:35:40.470Z,19.90
2019-06-07T02:38:02.299Z,21.53
2019-06-07T02:40:36.040Z,21.70
2019-06-07T02:42:56.655Z,18.77
2019-06-07T02:45:24.808Z,20.13
2019-06-07T02:47:51.018Z,19.00
2019-06-07T02:50:17.755Z,20.77
2019-06-07T02:52:43.871Z,21.13
2019-06-07T02:55:12.010Z,22.53
2019-06-07T02:57:41.594Z,20.57
2019-06-07T03:00:40.820Z,21.77
2019-06-07T03:02:41.184Z,21.60
2019-06-07T03:05:05.985Z,22.30
2019-06-07T03:07:36.201Z,23.37
2019-06-07T03:10:02.066Z,23.73
2019-06-07T03:12:32.305Z,25.10
2019-06-07T03:14:59.618Z,24.97
2019-06-07T03:17:35.255Z,24.33
2019-06-07T03:20:03.201Z,22.70
2019-06-07T03:22:35.130Z,22.13
2019-06-07T03:25:02.901Z,21.97
2019-06-07T03:27:36.040Z,23.80
2019-06-07T03:29:57.268Z,23.90
2019-06-07T03:32:23.401Z,23.97
2019-06-07T03:34:49.633Z,23.10
2019-06-07T03:37:15.755Z,21.23
2019-06-07T03:39:41.893Z,21.60
2019-06-07T03:42:08.587Z,22.30
2019-06-07T03:44:37.874Z,21.93
2019-06-07T03:47:03.035Z,21.90
2019-06-07T03:49:31.519Z,23.63
2019-06-07T03:51:57.394Z,21.73
2019-06-07T03:54:23.618Z,21.00
2019-06-07T03:56:49.862Z,21.80
2019-06-07T03:59:16.087Z,20.53
2019-06-07T04:01:42.238Z,20.33
2019-06-07T04:04:08.471Z,19.77
2019-06-07T04:06:36.806Z,18.90
2019-06-07T04:09:04.868Z,18.77
2019-06-07T04:11:32.589Z,18.37
2019-06-07T04:13:58.862Z,19.00
2019-06-07T04:16:25.005Z,17.87
2019-06-07T04:18:51.149Z,18.20
2019-06-07T04:21:17.410Z,17.50
2019-06-07T04:23:45.774Z,16.53
2019-06-07T04:26:11.790Z,16.03
2019-06-07T04:29:30.501Z,16.23
2019-06-07T04:31:06.179Z,15.40
2019-06-07T04:33:34.970Z,15.40
2019-06-07T04:36:01.884Z,15.93
2019-06-07T04:38:32.712Z,15.40
2019-06-07T04:40:58.870Z,16.30
2019-06-07T04:43:29.863Z,15.70
2019-06-07T04:45:56.050Z,15.27
2019-06-07T04:48:24.896Z,15.83
2019-06-07T04:50:53.320Z,14.00
2019-06-07T04:53:19.473Z,13.90
2019-06-07T04:55:45.702Z,12.97
2019-06-07T04:58:11.931Z,12.57
2019-06-07T05:01:01.485Z,12.17
2019-06-07T05:03:06.545Z,11.47
2019-06-07T05:05:34.528Z,10.17
2019-06-07T05:08:07.154Z,10.95
2019-06-07T05:10:30.616Z,10.47
2019-06-07T05:12:57.648Z,10.35
2019-06-07T05:15:23.967Z,8.55
2019-06-07T05:17:50.322Z,9.00
2019-06-07T05:20:16.647Z,9.33
2019-06-07T05:22:45.238Z,9.85
2019-06-07T05:25:11.019Z,8.75
2019-06-07T05:27:39.326Z,8.48
2019-06-07T05:30:23.820Z,8.30
2019-06-07T05:32:36.781Z,9.38
2019-06-07T05:35:04.750Z,9.28
2019-06-07T05:37:33.058Z,9.23
2019-06-07T05:39:59.108Z,9.93
2019-06-07T05:42:25.341Z,9.20
2019-06-07T05:44:51.581Z,10.10
2019-06-07T05:47:17.808Z,9.30
2019-06-07T05:49:47.006Z,8.43
2019-06-07T05:52:12.216Z,9.13
2019-06-07T05:54:40.509Z,9.98
2019-06-07T05:57:06.581Z,9.75
2019-06-07T05:59:33.790Z,10.63
2019-06-07T06:02:09.476Z,10.32
2019-06-07T06:04:28.899Z,11.48
2019-06-07T06:06:55.146Z,10.58
2019-06-07T06:09:21.341Z,10.08
2019-06-07T06:11:59.529Z,9.60
2019-06-07T06:14:15.669Z,10.10
2019-06-07T06:16:44.481Z,9.83
2019-06-07T06:19:09.912Z,9.53
2019-06-07T06:21:36.252Z,8.30
2019-06-07T06:24:02.492Z,8.68
2019-06-07T06:26:28.628Z,8.55
2019-06-07T06:28:56.261Z,8.43
2019-06-07T06:31:22.546Z,8.45
2019-06-07T06:33:49.874Z,8.48
2019-06-07T06:36:16.461Z,8.15
2019-06-07T06:38:43.864Z,7.53
2019-06-07T06:41:15.808Z,8.30
2019-06-07T06:43:41.477Z,7.97
2019-06-07T06:46:06.964Z,8.25
2019-06-07T06:48:33.116Z,8.33
2019-06-07T06:50:59.261Z,8.20
2019-06-07T06:53:25.512Z,8.63
2019-06-07T06:55:51.749Z,7.90
2019-06-07T06:58:17.921Z,7.00
2019-06-07T07:00:59.753Z,7.62
2019-06-07T07:03:56.787Z,6.97
2019-06-07T07:05:48.673Z,6.45
2019-06-07T07:08:12.857Z,6.10
2019-06-07T07:10:45.901Z,6.90
2019-06-07T07:13:13.080Z,6.62
2019-06-07T07:15:39.507Z,5.80
2019-06-07T07:18:08.908Z,5.92
2019-06-07T07:20:39.194Z,6.92
2019-06-07T07:23:05.568Z,7.25
2019-06-07T07:25:31.801Z,7.40
2019-06-07T07:27:58.186Z,6.75
2019-06-07T07:30:47.388Z,6.20
2019-06-07T07:33:14.800Z,6.20
2019-06-07T07:36:03.244Z,6.30
2019-06-07T07:38:09.173Z,5.42
2019-06-07T07:40:57.087Z,5.58
2019-06-07T07:43:05.038Z,4.95
2019-06-07T07:45:31.304Z,4.90
2019-06-07T07:48:13.764Z,4.67
2019-06-07T07:50:25.698Z,4.53
2019-06-07T07:52:56.002Z,5.10
2019-06-07T07:55:20.010Z,4.53
2019-06-07T07:57:48.672Z,4.92
2019-06-07T08:00:49.575Z,4.75
2019-06-07T08:02:43.220Z,4.53
2019-06-07T08:05:22.658Z,4.67
2019-06-07T08:07:38.622Z,4.90
2019-06-07T08:10:05.771Z,4.50
2019-06-07T08:12:52.877Z,4.67
2019-06-07T08:15:03.432Z,5.10
2019-06-07T08:17:28.200Z,4.80
2019-06-07T08:19:57.332Z,4.65
2019-06-07T08:22:22.598Z,5.03
2019-06-07T08:24:50.463Z,5.05
2019-06-07T08:27:25.862Z,5.67
2019-06-07T08:30:00.875Z,4.97
2019-06-07T08:32:13.405Z,5.50
2019-06-07T08:34:39.569Z,5.47
2019-06-07T08:37:05.825Z,5.00
2019-06-07T08:39:32.095Z,4.85
2019-06-07T08:42:12.765Z,5.47
2019-06-07T08:44:26.521Z,5.05
2019-06-07T08:47:11.623Z,5.35
2019-06-07T08:49:20.997Z,5.12
2019-06-07T08:51:47.263Z,5.78
2019-06-07T08:54:22.198Z,5.42
2019-06-07T08:56:41.645Z,5.72
2019-06-07T08:59:11.403Z,5.22
2019-06-07T09:01:36.055Z,5.40
2019-06-07T09:04:07.660Z,5.78
2019-06-07T09:09:01.578Z,5.53
2019-06-07T09:11:26.794Z,6.20
2019-06-07T09:13:54.510Z,6.30
2019-06-07T09:16:21.197Z,5.80
2019-06-07T09:18:47.428Z,6.78
2019-06-07T09:21:13.573Z,5.60
2019-06-07T09:23:39.838Z,5.30
2019-06-07T09:26:15.986Z,5.42
2019-06-07T09:28:34.128Z,5.60
2019-06-07T09:31:06.902Z,5.10
2019-06-07T09:33:28.562Z,5.42
2019-06-07T09:35:56.166Z,5.50
2019-06-07T09:38:26.184Z,5.80
2019-06-07T09:40:51.221Z,5.72
2019-06-07T09:45:45.528Z,5.65
2019-06-07T09:48:34.439Z,5.70
2019-06-07T09:50:43.853Z,5.75
2019-06-07T09:53:21.999Z,6.00
2019-06-07T09:55:38.338Z,5.78
2019-06-07T09:58:44.862Z,5.35
2019-06-07T10:00:40.571Z,5.40
2019-06-07T10:03:13.852Z,5.35
2019-06-07T10:05:29.147Z,5.53
2019-06-07T10:08:07.589Z,5.60
2019-06-07T10:12:51.704Z,5.62
2019-06-07T10:15:17.971Z,5.65
2019-06-07T10:17:44.095Z,6.12
2019-06-07T10:20:10.554Z,5.85
2019-06-07T10:22:36.835Z,6.00
2019-06-07T10:25:04.446Z,5.62
2019-06-07T10:27:31.098Z,6.55
2019-06-07T10:29:57.348Z,5.67
2019-06-07T10:32:23.712Z,6.53
2019-06-07T10:34:50.006Z,6.10
2019-06-07T10:37:16.267Z,6.05
2019-06-07T10:39:48.533Z,5.87
2019-06-07T10:42:11.609Z,5.67
2019-06-07T10:44:38.062Z,6.67
2019-06-07T10:47:05.922Z,5.45
2019-06-07T10:49:32.269Z,5.67
2019-06-07T10:51:58.511Z,5.70
2019-06-07T10:54:30.337Z,5.45
2019-06-07T10:56:52.900Z,5.83
2019-06-07T10:59:19.157Z,5.30
2019-06-07T11:01:45.414Z,5.35
2019-06-07T11:04:11.817Z,6.08
2019-06-07T11:06:39.782Z,5.75
2019-06-07T11:09:07.899Z,5.72
2019-06-07T11:11:34.313Z,5.22
2019-06-07T11:14:00.572Z,5.30
2019-06-07T11:16:26.908Z,5.80
2019-06-07T11:18:53.053Z,5.50
2019-06-07T11:21:19.301Z,5.65
2019-06-07T11:23:46.525Z,5.17
2019-06-07T11:26:12.774Z,6.10
2019-06-07T11:28:39.013Z,5.05
2019-06-07T11:31:06.350Z,4.62
2019-06-07T11:33:32.719Z,5.45
2019-06-07T11:35:58.964Z,5.10
2019-06-07T11:38:25.196Z,4.70
2019-06-07T11:40:51.455Z,4.72
2019-06-07T11:43:18.833Z,4.50
2019-06-07T11:45:45.431Z,5.10
2019-06-07T11:48:11.655Z,3.92
2019-06-07T11:50:37.916Z,4.65
2019-06-07T11:53:04.177Z,4.60
2019-06-07T11:55:30.320Z,4.65
2019-06-07T11:57:56.557Z,4.28
2019-06-07T12:00:23.709Z,4.45
2019-06-07T12:02:50.022Z,4.55
2019-06-07T12:05:19.809Z,4.40
2019-06-07T12:07:44.812Z,4.90
2019-06-07T12:10:12.569Z,5.22
2019-06-07T12:12:38.946Z,4.87
2019-06-07T12:15:06.097Z,4.80
2019-06-07T12:17:32.254Z,5.53
2019-06-07T12:19:58.394Z,5.05
2019-06-07T12:22:24.552Z,5.12
2019-06-07T12:24:50.815Z,4.72
2019-06-07T12:27:17.159Z,5.40
2019-06-07T12:29:43.425Z,5.05
2019-06-07T12:32:11.133Z,5.50
2019-06-07T12:34:37.496Z,4.72
2019-06-07T12:37:03.732Z,5.53
2019-06-07T12:39:29.986Z,5.58
2019-06-07T12:41:56.218Z,5.28
2019-06-07T12:44:22.840Z,5.08
2019-06-07T12:46:49.320Z,5.53
2019-06-07T12:49:15.575Z,4.65
2019-06-07T12:51:42.693Z,5.08
2019-06-07T12:54:08.824Z,5.03
2019-06-07T12:56:36.113Z,5.30
2019-06-07T12:59:02.588Z,5.22
2019-06-07T13:01:28.735Z,5.25
2019-06-07T13:03:54.986Z,5.85
2019-06-07T13:06:21.684Z,5.83
2019-06-07T13:08:49.066Z,6.17
2019-06-07T13:11:21.634Z,5.42
2019-06-07T13:13:43.584Z,5.30
2019-06-07T13:16:09.982Z,5.03
2019-06-07T13:18:36.201Z,5.55
2019-06-07T13:21:02.441Z,5.00
2019-06-07T13:23:29.119Z,5.15
2019-06-07T13:25:55.451Z,6.12
2019-06-07T13:28:22.682Z,5.62
2019-06-07T13:30:49.046Z,6.37
2019-06-07T13:33:16.795Z,6.28
2019-06-07T13:35:43.828Z,7.00
2019-06-07T13:38:11.889Z,6.20
2019-06-07T13:40:38.019Z,6.55
2019-06-07T13:43:04.279Z,6.08
2019-06-07T13:45:30.518Z,7.25
2019-06-07T13:47:56.881Z,6.50
2019-06-07T13:50:24.136Z,6.62
2019-06-07T13:52:50.357Z,6.25
2019-06-07T13:55:17.878Z,5.78
2019-06-07T13:57:44.247Z,6.40
2019-06-07T14:00:11.804Z,5.90
2019-06-07T14:02:38.244Z,6.30
2019-06-07T14:05:06.283Z,6.62
2019-06-07T14:07:32.437Z,6.22
2019-06-07T14:09:58.576Z,5.87
2019-06-07T14:12:26.202Z,5.97
2019-06-07T14:14:52.644Z,6.75
2019-06-07T14:17:18.779Z,5.67
2019-06-07T14:19:45.034Z,6.03
2019-06-07T14:22:11.266Z,6.15
2019-06-07T14:24:37.507Z,6.33
2019-06-07T14:27:06.631Z,6.60
2019-06-07T14:29:34.586Z,6.35
2019-06-07T14:32:00.831Z,7.47
2019-06-07T14:34:28.600Z,7.72
2019-06-07T14:36:55.047Z,8.00
2019-06-07T14:39:21.191Z,7.67
2019-06-07T14:41:47.325Z,7.22
2019-06-07T14:44:13.446Z,7.08
2019-06-07T14:46:39.710Z,6.30
2019-06-07T14:49:05.848Z,6.72
2019-06-07T14:51:33.495Z,5.40
2019-06-07T14:54:00.257Z,6.08
2019-06-07T14:56:27.059Z,6.70
2019-06-07T14:58:53.332Z,5.90
2019-06-07T15:01:19.574Z,5.78
2019-06-07T15:03:45.701Z,5.62
2019-06-07T15:06:11.970Z,5.50
2019-06-07T15:08:39.150Z,6.03
2019-06-07T15:11:05.566Z,6.30
2019-06-07T15:13:33.451Z,5.50
2019-06-07T15:15:59.920Z,5.85
2019-06-07T15:18:27.492Z,5.83
2019-06-07T15:20:53.921Z,6.28
2019-06-07T15:23:20.179Z,6.45
2019-06-07T15:25:46.330Z,6.42
2019-06-07T15:28:12.542Z,5.67
2019-06-07T15:30:38.795Z,6.45
2019-06-07T15:33:05.046Z,5.87
2019-06-07T15:35:32.140Z,6.03
2019-06-07T15:37:58.612Z,5.95
2019-06-07T15:40:24.842Z,6.00
2019-06-07T15:42:53.228Z,6.28
2019-06-07T15:45:19.316Z,6.03
2019-06-07T15:47:45.607Z,5.67
2019-06-07T15:50:13.144Z,6.05
2019-06-07T15:52:41.267Z,6.33
2019-06-07T15:55:09.231Z,6.87
2019-06-07T15:57:35.355Z,6.72
2019-06-07T16:00:03.855Z,7.45
2019-06-07T16:02:31.365Z,8.15
2019-06-07T16:04:57.767Z,7.55
2019-06-07T16:07:23.896Z,8.03
2019-06-07T16:09:50.128Z,7.83
2019-06-07T16:12:16.281Z,7.65
2019-06-07T16:14:43.530Z,7.85
2019-06-07T16:17:09.996Z,7.67
2019-06-07T16:19:41.056Z,8.23
2019-06-07T16:22:04.398Z,7.37
2019-06-07T16:24:30.617Z,7.12
2019-06-07T16:26:56.766Z,7.20
2019-06-07T16:29:22.921Z,7.45
2019-06-07T16:31:49.085Z,8.30
2019-06-07T16:34:15.216Z,7.42
2019-06-07T16:36:42.278Z,7.53
2019-06-07T16:39:08.768Z,7.20
2019-06-07T16:41:36.439Z,7.83
2019-06-07T16:44:02.993Z,8.10
2019-06-07T16:46:29.262Z,7.87
2019-06-07T16:48:55.387Z,7.43
2019-06-07T16:51:21.623Z,6.92
2019-06-07T16:53:48.612Z,7.53
2019-06-07T16:56:15.005Z,8.23
2019-06-07T16:58:42.292Z,7.60
2019-06-07T17:01:08.676Z,7.72
2019-06-07T17:03:34.934Z,8.18
2019-06-07T17:06:01.178Z,7.60
2019-06-07T17:08:27.432Z,7.73
2019-06-07T17:10:53.680Z,7.30
2019-06-07T17:13:32.354Z,7.30
2019-06-07T17:15:48.970Z,7.53
2019-06-07T17:18:17.093Z,6.67
2019-06-07T17:20:43.295Z,6.93
2019-06-07T17:23:09.469Z,6.67
2019-06-07T17:25:35.606Z,6.50
2019-06-07T17:28:01.875Z,6.70
2019-06-07T17:30:28.127Z,6.70
2019-06-07T17:32:59.160Z,7.10
2019-06-07T17:35:22.418Z,6.57
2019-06-07T17:37:49.637Z,7.33
2019-06-07T17:40:17.125Z,7.00
2019-06-07T17:42:43.363Z,7.80
2019-06-07T17:45:10.990Z,7.33
2019-06-07T17:47:37.337Z,7.13
2019-06-07T17:50:05.611Z,7.20
2019-06-07T17:52:31.848Z,7.13
2019-06-07T17:54:58.093Z,7.70
2019-06-07T17:57:24.322Z,7.50
2019-06-07T17:59:50.679Z,7.23
2019-06-07T18:02:16.898Z,6.73
2019-06-07T18:04:43.228Z,7.60
2019-06-07T18:07:10.169Z,7.97
2019-06-07T18:09:37.826Z,8.27
2019-06-07T18:12:04.156Z,8.23
2019-06-07T18:14:30.401Z,8.80
2019-06-07T18:16:56.753Z,8.53
2019-06-07T18:19:22.984Z,8.07
2019-06-07T18:21:50.076Z,8.37
2019-06-07T18:24:17.393Z,8.67
2019-06-07T18:26:43.626Z,8.40
2019-06-07T18:29:09.870Z,8.90
2019-06-07T18:31:36.119Z,8.17
2019-06-07T18:34:02.354Z,8.33
2019-06-07T18:36:28.575Z,8.87
2019-06-07T18:38:55.116Z,7.87
2019-06-07T18:41:21.462Z,8.00
2019-06-07T18:43:49.082Z,8.07
2019-06-07T18:46:15.525Z,8.73
2019-06-07T18:48:41.745Z,8.60
2019-06-07T18:51:07.998Z,8.13
2019-06-07T18:53:34.145Z,8.30
2019-06-07T18:56:00.287Z,8.30
2019-06-07T18:58:26.511Z,8.37
2019-06-07T19:00:53.793Z,8.63
2019-06-07T19:03:20.215Z,8.50
2019-06-07T19:05:46.447Z,8.80
2019-06-07T19:08:12.706Z,8.57
2019-06-07T19:10:39.028Z,8.37
2019-06-07T19:13:05.260Z,8.30
2019-06-07T19:15:31.395Z,8.73
2019-06-07T19:17:58.118Z,8.43
2019-06-07T19:20:24.980Z,8.90
2019-06-07T19:22:52.066Z,8.20
2019-06-07T19:25:18.329Z,8.33
2019-06-07T19:27:45.192Z,8.20
2019-06-07T19:30:12.013Z,8.37
2019-06-07T19:32:38.281Z,8.60
2019-06-07T19:35:06.911Z,8.30
2019-06-07T19:37:33.158Z,7.60
2019-06-07T19:40:00.109Z,8.80
2019-06-07T19:42:26.522Z,8.57
2019-06-07T19:45:00.052Z,8.23
2019-06-07T19:47:20.895Z,8.50
2019-06-07T19:49:47.128Z,8.37
2019-06-07T19:52:13.380Z,8.00
2019-06-07T19:54:39.654Z,8.63
2019-06-07T19:57:05.807Z,9.10
2019-06-07T19:59:32.037Z,8.70
2019-06-07T20:01:58.155Z,8.43
2019-06-07T20:04:24.388Z,8.47
2019-06-07T20:06:50.550Z,8.73
2019-06-07T20:09:16.789Z,8.67
2019-06-07T20:11:42.936Z,8.70
2019-06-07T20:14:09.175Z,8.87
2019-06-07T20:16:35.488Z,8.93
2019-06-07T20:19:03.529Z,8.90
2019-06-07T20:21:29.731Z,9.27
2019-06-07T20:23:56.779Z,9.20
2019-06-07T20:26:22.989Z,9.90
2019-06-07T20:28:49.226Z,9.03
2019-06-07T20:31:15.451Z,9.27
2019-06-07T20:33:41.699Z,9.93
2019-06-07T20:36:09.074Z,9.13
2019-06-07T20:38:35.292Z,9.67
2019-06-07T20:41:01.520Z,8.97
2019-06-07T20:43:27.758Z,9.80
2019-06-07T20:45:53.995Z,8.77
2019-06-07T20:48:20.148Z,9.23
2019-06-07T20:50:46.280Z,9.60
2019-06-07T20:53:12.535Z,9.57
2019-06-07T20:55:38.764Z,9.73
2019-06-07T20:58:05.529Z,10.40
2019-06-07T21:00:31.943Z,9.63
2019-06-07T21:02:59.008Z,10.23
2019-06-07T21:05:25.413Z,10.57
2019-06-07T21:07:51.544Z,10.53
2019-06-07T21:10:17.702Z,10.50
2019-06-07T21:12:43.913Z,10.10
2019-06-07T21:15:14.136Z,9.93
2019-06-07T21:17:38.550Z,10.67
2019-06-07T21:20:09.317Z,10.50
2019-06-07T21:22:34.325Z,9.07
2019-06-07T21:25:00.752Z,10.77
2019-06-07T21:27:27.081Z,10.70
2019-06-07T21:30:00.927Z,10.60
2019-06-07T21:32:27.363Z,10.53
2019-06-07T21:34:53.514Z,11.13
2019-06-07T21:37:19.741Z,10.27
2019-06-07T21:39:49.962Z,10.77
2019-06-07T21:42:15.961Z,9.80
2019-06-07T21:44:42.192Z,10.17
2019-06-07T21:47:08.558Z,11.37
2019-06-07T21:49:34.765Z,10.57
2019-06-07T21:52:02.372Z,9.93
2019-06-07T21:54:28.776Z,10.73
2019-06-07T21:56:54.933Z,10.13
2019-06-07T21:59:21.181Z,10.60
2019-06-07T22:01:47.413Z,10.00
2019-06-07T22:04:13.822Z,10.37
2019-06-07T22:06:43.060Z,9.90
2019-06-07T22:09:09.970Z,10.67
2019-06-07T22:11:36.445Z,10.87
2019-06-07T22:14:04.165Z,10.97
2019-06-07T22:16:30.554Z,11.03
2019-06-07T22:19:01.001Z,12.60
2019-06-07T22:21:29.024Z,12.03
2019-06-07T22:23:56.609Z,11.67
2019-06-07T22:26:24.872Z,12.43
2019-06-07T22:28:51.189Z,12.00
2019-06-07T22:31:17.420Z,11.97
2019-06-07T22:33:44.166Z,11.53
2019-06-07T22:36:11.047Z,12.00
2019-06-07T22:38:37.369Z,11.83
2019-06-07T22:41:03.613Z,14.20
2019-06-07T22:43:29.835Z,15.80
2019-06-07T22:45:55.977Z,13.73
2019-06-07T22:48:22.206Z,13.60
2019-06-07T22:50:48.434Z,11.90
2019-06-07T22:53:15.559Z,14.10
2019-06-07T22:55:43.595Z,15.23
2019-06-07T22:58:10.048Z,15.10
2019-06-07T23:00:38.207Z,13.53
2019-06-07T23:03:04.424Z,13.27
2019-06-07T23:05:30.546Z,13.07
2019-06-07T23:07:56.702Z,13.60
2019-06-07T23:10:22.825Z,14.00
2019-06-07T23:12:48.957Z,14.57
2019-06-07T23:15:15.508Z,13.87
2019-06-07T23:17:41.617Z,13.77
2019-06-07T23:20:09.651Z,14.97
2019-06-07T23:22:35.970Z,15.30
2019-06-07T23:25:03.589Z,15.43
2019-06-07T23:27:29.731Z,15.30
2019-06-07T23:29:55.848Z,15.80
2019-06-07T23:32:22.084Z,15.07
2019-06-07T23:34:48.230Z,14.50
2019-06-07T23:37:15.017Z,13.83
2019-06-07T23:39:41.232Z,13.93
2019-06-07T23:42:07.451Z,14.23
2019-06-07T23:44:33.679Z,15.20
2019-06-07T23:47:10.697Z,15.50
2019-06-07T23:49:27.840Z,15.13
2019-06-07T23:51:54.079Z,16.40
2019-06-07T23:54:20.238Z,20.77
2019-06-07T23:56:46.467Z,17.03
2019-06-07T23:59:14.126Z,18.13
